Time;durP1;ratioP1;P1;durP2;ratioP2;P2;SDS_P1;SDS_P2;PMS_P1;PMS_P2;Temp;Humidity;BMP_temperature;BMP_pressure;BME280_temperature;BME280_humidity;BME280_pressure;Samples;Min_cycle;Max_cycle;Signal;HPM_P1;HPM_P2
2022/11/30 00:01:07;;;;;;;15.52;7.15;;;;;;;5.13;95.92;101150.03;4948191;28;20698;-45
2022/11/30 00:03:34;;;;;;;18.58;7.03;;;;;;;5.06;95.80;101149.56;4947542;29;20055;-49
2022/11/30 00:06:12;;;;;;;14.90;6.85;;;;;;;5.01;95.61;101155.13;4948514;28;20446;-44
2022/11/30 00:08:39;;;;;;;12.23;6.60;;;;;;;4.98;95.73;101153.00;4948629;29;20047;-45
2022/11/30 00:11:14;;;;;;;13.27;6.88;;;;;;;4.96;96.11;101150.53;4947856;28;20573;-48
2022/11/30 00:13:40;;;;;;;11.88;5.93;;;;;;;4.99;95.94;101154.63;4946632;28;20088;-48
2022/11/30 00:16:07;;;;;;;8.95;4.97;;;;;;;5.00;96.21;101151.59;4948146;29;20071;-47
2022/11/30 00:18:35;;;;;;;10.73;5.57;;;;;;;5.00;96.19;101148.84;4947531;28;20096;-44
2022/11/30 00:21:05;;;;;;;14.23;5.80;;;;;;;4.98;96.12;101155.75;4948626;29;20051;-44
2022/11/30 00:23:33;;;;;;;10.07;6.07;;;;;;;4.96;96.10;101156.03;4948514;28;20158;-45
2022/11/30 00:26:04;;;;;;;11.48;5.65;;;;;;;4.92;96.07;101155.81;4948135;28;20426;-46
2022/11/30 00:28:32;;;;;;;13.40;5.97;;;;;;;4.92;96.39;101155.00;4948323;28;20489;-44
2022/11/30 00:31:01;;;;;;;9.98;6.13;;;;;;;4.92;96.14;101152.28;4948357;28;20063;-44
2022/11/30 00:33:28;;;;;;;8.32;4.95;;;;;;;4.92;96.48;101155.00;4947159;28;20284;-49
2022/11/30 00:35:59;;;;;;;11.07;5.13;;;;;;;4.91;96.47;101154.19;4946742;28;20047;-48
2022/11/30 00:38:26;;;;;;;13.65;5.53;;;;;;;4.91;96.45;101153.38;4948633;28;20155;-49
2022/11/30 00:40:53;;;;;;;11.10;6.53;;;;;;;4.87;96.52;101149.59;4948911;29;20051;-46
2022/11/30 00:43:20;;;;;;;14.80;6.38;;;;;;;4.84;96.17;101151.00;4948530;28;20130;-45
2022/11/30 00:45:46;;;;;;;12.05;6.40;;;;;;;4.80;96.21;101146.41;4947316;28;20055;-50
2022/11/30 00:48:13;;;;;;;10.93;6.70;;;;;;;4.74;96.42;101148.41;4948419;28;20051;-46
2022/11/30 00:50:41;;;;;;;13.27;6.38;;;;;;;4.70;96.41;101146.56;4963011;28;20646;-44
2022/11/30 00:53:08;;;;;;;18.40;6.80;;;;;;;4.70;96.53;101154.78;4946490;28;20078;-47
2022/11/30 00:55:34;;;;;;;11.73;6.25;;;;;;;4.69;96.79;101140.25;4948141;28;20421;-46
2022/11/30 00:58:01;;;;;;;10.98;6.50;;;;;;;4.70;96.32;101149.28;4949975;28;20057;-48
2022/11/30 01:00:28;;;;;;;11.52;6.35;;;;;;;4.68;96.76;101151.53;4951336;29;20630;-46
2022/11/30 01:02:55;;;;;;;13.68;6.75;;;;;;;4.68;96.78;101155.09;4951346;29;20059;-47
2022/11/30 01:05:22;;;;;;;15.65;6.95;;;;;;;4.68;96.77;101152.34;4951268;28;20078;-45
2022/11/30 01:07:49;;;;;;;15.32;7.75;;;;;;;4.69;96.93;101155.88;4951576;28;20055;-52
2022/11/30 01:10:16;;;;;;;15.07;7.50;;;;;;;4.69;97.06;101164.94;4950456;28;20051;-50
2022/11/30 01:12:43;;;;;;;16.40;7.32;;;;;;;4.66;97.08;101164.72;4951734;28;20055;-50
2022/11/30 01:15:10;;;;;;;15.35;7.53;;;;;;;4.58;96.56;101166.19;4952038;28;20137;-45
2022/11/30 01:17:37;;;;;;;14.05;7.18;;;;;;;4.51;96.96;101164.91;4948516;29;20091;-51
2022/11/30 01:20:07;;;;;;;19.52;11.18;;;;;;;4.45;96.74;101168.84;4949422;28;20098;-48
2022/11/30 01:22:34;;;;;;;21.77;9.73;;;;;;;4.45;97.03;101174.34;4940380;29;20043;-45
2022/11/30 01:25:02;;;;;;;24.27;9.98;;;;;;;4.44;97.23;101178.19;4951551;28;20519;-48
2022/11/30 01:27:28;;;;;;;28.33;12.27;;;;;;;4.45;97.10;101172.38;4951120;29;20086;-49
2022/11/30 01:29:55;;;;;;;25.80;12.57;;;;;;;4.37;97.07;101170.28;4951773;29;20057;-46
2022/11/30 01:32:22;;;;;;;29.48;12.90;;;;;;;4.30;97.02;101164.38;4951490;29;20082;-44
2022/11/30 01:34:48;;;;;;;32.45;14.05;;;;;;;4.29;97.18;101169.03;4951592;29;20461;-44
2022/11/30 01:37:15;;;;;;;23.02;12.70;;;;;;;4.30;97.10;101159.72;4951241;29;20126;-46
2022/11/30 01:39:42;;;;;;;27.65;12.45;;;;;;;4.29;97.55;101162.72;4951026;29;20051;-48
2022/11/30 01:42:17;;;;;;;23.67;11.00;;;;;;;4.30;97.32;101156.97;4951735;29;20047;-50
2022/11/30 01:44:53;;;;;;;22.75;10.35;;;;;;;4.28;97.05;101161.94;4950480;29;20047;-47
2022/11/30 01:47:29;;;;;;;19.38;9.02;;;;;;;4.23;97.24;101162.00;4947422;29;20059;-47
2022/11/30 01:50:09;;;;;;;20.73;10.05;;;;;;;4.21;97.17;101161.44;4950912;28;20054;-46
2022/11/30 01:52:39;;;;;;;22.83;8.88;;;;;;;4.19;97.01;101158.19;4951024;29;20055;-46
2022/11/30 01:55:25;;;;;;;22.05;11.50;;;;;;;4.20;97.55;101165.31;4951033;28;20047;-48
2022/11/30 01:58:00;;;;;;;16.05;8.80;;;;;;;4.19;97.34;101169.16;4950929;29;20059;-44
2022/11/30 02:00:27;;;;;;;15.63;8.27;;;;;;;4.21;97.33;101166.94;4947825;28;20056;-45
2022/11/30 02:03:10;;;;;;;18.95;8.05;;;;;;;4.18;97.24;101161.25;4947395;29;20063;-44
2022/11/30 02:05:40;;;;;;;;;;;;;;;4.19;97.46;101165.59;4949541;28;20086;-45
2022/11/30 02:08:09;;;;;;;14.57;7.80;;;;;;;4.19;97.18;101173.81;4948929;29;19933;-45
2022/11/30 02:10:51;;;;;;;15.80;6.93;;;;;;;4.18;97.21;101175.72;4947406;28;20125;-48
2022/11/30 02:13:33;;;;;;;14.77;6.65;;;;;;;4.21;97.26;101180.63;4948888;29;20047;-47
2022/11/30 02:16:38;;;;;;;15.57;5.95;;;;;;;4.22;97.19;101184.19;4947341;28;20051;-48
2022/11/30 02:19:24;;;;;;;12.15;6.25;;;;;;;4.20;97.21;101176.28;4948678;29;20047;-51
2022/11/30 02:21:56;;;;;;;11.65;4.95;;;;;;;4.20;96.96;101178.19;4948725;29;20098;-52
2022/11/30 02:24:54;;;;;;;11.63;6.32;;;;;;;4.16;96.91;101174.41;4950546;28;20051;-46
2022/11/30 02:27:28;;;;;;;14.98;6.40;;;;;;;4.13;97.16;101170.31;4947357;28;20058;-45
2022/11/30 02:30:04;;;;;;;11.38;6.03;;;;;;;4.16;97.25;101185.34;4951910;28;20158;-52
2022/11/30 02:32:37;;;;;;;15.05;6.40;;;;;;;4.15;97.03;101190.03;4950266;28;20051;-47
2022/11/30 02:35:07;;;;;;;18.00;6.95;;;;;;;4.10;96.93;101184.59;4945544;28;20437;-45
2022/11/30 02:37:36;;;;;;;14.90;8.38;;;;;;;4.06;97.15;101197.25;4953589;28;20799;-45
2022/11/30 02:40:13;;;;;;;9.82;5.65;;;;;;;4.05;97.51;101203.03;4957493;28;20054;-44
2022/11/30 02:42:40;;;;;;;12.10;5.72;;;;;;;4.01;97.18;101207.44;4947538;29;20051;-47
2022/11/30 02:45:08;;;;;;;11.43;6.07;;;;;;;3.99;97.33;101207.75;4946199;29;20234;-52
2022/11/30 02:47:47;;;;;;;20.05;7.05;;;;;;;4.04;97.71;101204.97;4947660;29;20576;-44
2022/11/30 02:50:19;;;;;;;9.95;5.20;;;;;;;4.10;97.82;101208.47;4942318;29;20047;-45
2022/11/30 02:52:47;;;;;;;8.68;5.00;;;;;;;4.16;97.84;101213.56;4946262;29;20047;-50
2022/11/30 02:55:16;;;;;;;15.45;6.18;;;;;;;4.24;97.63;101204.72;4950153;28;20051;-45
2022/11/30 02:57:43;;;;;;;17.02;6.38;;;;;;;4.30;98.15;101208.22;4945922;28;20138;-49
2022/11/30 03:00:11;;;;;;;18.55;5.38;;;;;;;4.39;98.17;101211.97;4947568;29;20051;-45
2022/11/30 03:02:39;;;;;;;10.07;5.55;;;;;;;4.48;98.34;101209.38;4977095;23;20064;-47
2022/11/30 03:05:07;;;;;;;19.38;5.95;;;;;;;4.55;98.24;101210.66;4966274;28;20050;-46
2022/11/30 03:07:34;;;;;;;16.38;5.55;;;;;;;4.59;98.28;101211.69;4968947;28;20129;-45
2022/11/30 03:10:01;;;;;;;14.32;6.55;;;;;;;4.62;98.41;101210.28;4942534;28;20046;-48
2022/11/30 03:12:28;;;;;;;19.48;7.30;;;;;;;4.64;98.38;101203.41;4968705;28;20109;-46
2022/11/30 03:14:55;;;;;;;13.48;4.95;;;;;;;4.68;98.74;101198.16;4951354;28;20607;-46
2022/11/30 03:17:22;;;;;;;12.77;4.57;;;;;;;4.70;98.79;101213.19;4950691;28;20082;-45
2022/11/30 03:19:48;;;;;;;10.40;5.43;;;;;;;4.72;99.04;101215.63;4968825;28;20050;-46
2022/11/30 03:22:15;;;;;;;13.38;6.32;;;;;;;4.73;99.18;101203.56;4967087;28;20492;-45
2022/11/30 03:24:42;;;;;;;14.25;4.47;;;;;;;4.74;99.17;101196.94;4950506;28;20043;-45
2022/11/30 03:27:08;;;;;;;17.27;6.35;;;;;;;4.74;99.37;101210.66;4955013;28;20054;-48
2022/11/30 03:29:35;;;;;;;10.90;5.25;;;;;;;4.72;99.45;101210.16;4968115;28;20042;-45
2022/11/30 03:32:02;;;;;;;16.35;5.03;;;;;;;4.71;99.57;101219.50;4968005;28;20051;-44
2022/11/30 03:34:29;;;;;;;13.55;4.97;;;;;;;4.71;99.51;101209.31;4968534;28;20065;-44
2022/11/30 03:36:56;;;;;;;18.42;4.40;;;;;;;4.72;99.73;101207.41;4964685;28;20043;-50
2022/11/30 03:39:23;;;;;;;16.80;5.53;;;;;;;4.74;99.93;101207.91;4965372;28;20055;-46
2022/11/30 03:41:50;;;;;;;15.93;4.65;;;;;;;4.77;100.00;101213.63;4967922;28;20050;-49
2022/11/30 03:44:17;;;;;;;22.17;6.13;;;;;;;4.81;100.00;101216.63;4966004;28;20042;-45
2022/11/30 03:46:44;;;;;;;10.00;4.82;;;;;;;4.82;100.00;101220.97;4965462;28;20046;-46
2022/11/30 03:49:10;;;;;;;14.93;4.78;;;;;;;4.87;100.00;101229.16;4949040;28;20055;-47
2022/11/30 03:51:37;;;;;;;12.68;4.18;;;;;;;4.89;100.00;101221.44;4965844;28;20057;-46
2022/11/30 03:54:04;;;;;;;13.93;4.45;;;;;;;4.91;100.00;101227.44;4964533;28;20050;-48
2022/11/30 03:56:31;;;;;;;10.02;3.90;;;;;;;4.90;100.00;101234.84;4966650;28;20449;-45
2022/11/30 03:58:57;;;;;;;14.63;5.20;;;;;;;4.88;100.00;101241.75;4965870;28;20765;-45
2022/11/30 04:01:25;;;;;;;9.90;4.70;;;;;;;4.92;100.00;101234.56;4960403;28;20055;-47
2022/11/30 04:03:53;;;;;;;17.27;4.70;;;;;;;4.93;100.00;101238.94;4967483;28;20062;-45
2022/11/30 04:06:20;;;;;;;12.57;3.83;;;;;;;4.94;100.00;101235.09;4966944;28;20051;-45
2022/11/30 04:08:47;;;;;;;10.93;4.80;;;;;;;4.90;100.00;101239.53;4966411;28;20050;-48
2022/11/30 04:11:16;;;;;;;7.80;3.90;;;;;;;4.88;100.00;101247.22;4966037;28;20047;-45
2022/11/30 04:13:43;;;;;;;14.45;4.18;;;;;;;4.84;100.00;101232.50;4965992;28;20489;-47
2022/11/30 04:16:10;;;;;;;15.10;3.95;;;;;;;4.83;100.00;101233.59;4964755;28;20540;-45
2022/11/30 04:18:38;;;;;;;14.27;4.40;;;;;;;4.80;100.00;101228.69;4965868;28;20038;-45
2022/11/30 04:21:06;;;;;;;12.55;5.82;;;;;;;4.77;100.00;101229.28;4964562;28;20104;-45
2022/11/30 04:23:35;;;;;;;14.82;4.47;;;;;;;4.73;100.00;101228.25;4965224;28;20560;-45
2022/11/30 04:26:07;;;;;;;17.58;4.30;;;;;;;4.73;100.00;101233.72;4966968;28;20046;-45
2022/11/30 04:28:34;;;;;;;14.10;4.20;;;;;;;4.72;100.00;101226.59;4964762;28;20050;-44
2022/11/30 04:31:01;;;;;;;13.98;4.80;;;;;;;4.81;100.00;101241.31;4964558;28;20055;-44
2022/11/30 04:33:28;;;;;;;12.13;3.88;;;;;;;4.80;100.00;101239.66;4951324;28;20141;-45
2022/11/30 04:35:58;;;;;;;13.80;4.60;;;;;;;4.77;100.00;101234.75;4971027;28;20035;-47
2022/11/30 04:38:25;;;;;;;13.68;4.60;;;;;;;4.73;100.00;101245.53;4967883;28;20043;-46
2022/11/30 04:40:52;;;;;;;12.43;3.50;;;;;;;4.71;100.00;101241.44;4969006;28;20050;-45
2022/11/30 04:43:20;;;;;;;12.70;4.38;;;;;;;4.70;100.00;101248.84;4968115;28;20049;-44
2022/11/30 04:45:47;;;;;;;15.88;4.53;;;;;;;4.74;100.00;101238.91;4969575;28;20051;-44
2022/11/30 04:48:14;;;;;;;9.55;4.18;;;;;;;4.80;100.00;101253.38;4967340;28;20050;-48
2022/11/30 04:50:41;;;;;;;12.75;4.47;;;;;;;4.83;100.00;101241.81;4968205;28;20105;-47
2022/11/30 04:53:08;;;;;;;15.05;5.32;;;;;;;4.85;100.00;101250.56;4970521;28;20055;-46
2022/11/30 04:55:36;;;;;;;9.05;4.80;;;;;;;4.86;100.00;101253.03;4970502;28;20582;-44
2022/11/30 04:58:04;;;;;;;16.60;6.55;;;;;;;4.90;100.00;101253.25;4963324;28;20054;-47
2022/11/30 05:00:31;;;;;;;19.98;8.10;;;;;;;4.97;100.00;101252.88;4968868;28;20057;-45
2022/11/30 05:02:58;;;;;;;24.02;7.97;;;;;;;4.99;100.00;101254.22;4952414;28;20069;-44
2022/11/30 05:05:25;;;;;;;25.25;8.63;;;;;;;5.04;100.00;101250.59;4971113;28;20078;-44
2022/11/30 05:07:56;;;;;;;23.80;9.43;;;;;;;5.15;100.00;101247.41;4967393;28;20046;-49
2022/11/30 05:10:24;;;;;;;28.00;8.60;;;;;;;5.23;100.00;101248.66;4971269;28;20062;-46
2022/11/30 05:12:52;;;;;;;26.88;8.25;;;;;;;5.30;100.00;101257.31;4970833;28;20086;-45
2022/11/30 05:15:19;;;;;;;39.35;11.45;;;;;;;5.36;100.00;101246.00;4967619;28;20049;-47
2022/11/30 05:17:46;;;;;;;25.75;9.90;;;;;;;5.44;100.00;101250.81;4969754;28;20698;-46
2022/11/30 05:20:12;;;;;;;26.52;9.45;;;;;;;5.56;100.00;101235.81;4967772;28;20043;-44
2022/11/30 05:22:39;;;;;;;22.90;10.10;;;;;;;5.62;100.00;101240.91;4969908;28;20047;-45
2022/11/30 05:25:07;;;;;;;20.08;8.82;;;;;;;5.71;100.00;101238.28;4964563;28;20043;-51
2022/11/30 05:27:34;;;;;;;22.42;8.60;;;;;;;5.79;100.00;101251.34;4969852;28;20094;-50
2022/11/30 05:30:02;;;;;;;26.35;9.95;;;;;;;5.82;100.00;101231.50;4971512;28;20042;-45
2022/11/30 05:32:28;;;;;;;38.55;13.27;;;;;;;5.83;100.00;101235.88;4967694;28;20122;-52
2022/11/30 05:34:55;;;;;;;32.58;11.93;;;;;;;5.86;100.00;101240.78;4968627;28;20057;-45
2022/11/30 05:37:22;;;;;;;28.42;9.10;;;;;;;5.90;100.00;101239.91;4968969;28;20047;-44
2022/11/30 05:39:49;;;;;;;24.42;9.80;;;;;;;5.98;100.00;101243.88;4968315;28;20157;-46
2022/11/30 05:42:15;;;;;;;21.67;8.57;;;;;;;6.00;100.00;101242.47;4969611;28;20043;-46
2022/11/30 05:44:42;;;;;;;28.25;8.75;;;;;;;6.09;100.00;101250.81;4967614;28;20050;-44
2022/11/30 05:47:09;;;;;;;22.52;9.73;;;;;;;6.12;100.00;101247.47;4962916;28;20055;-47
2022/11/30 05:49:36;;;;;;;32.00;9.70;;;;;;;6.16;100.00;101248.50;4955582;28;20404;-45
2022/11/30 05:52:02;;;;;;;30.63;9.57;;;;;;;6.19;100.00;101245.16;4969066;28;20545;-47
2022/11/30 05:54:29;;;;;;;19.23;9.35;;;;;;;6.21;100.00;101244.81;4968729;28;20054;-45
2022/11/30 05:56:56;;;;;;;28.13;9.77;;;;;;;6.25;100.00;101248.63;4951448;28;20061;-49
2022/11/30 05:59:22;;;;;;;26.05;8.05;;;;;;;6.27;100.00;101240.88;4969803;28;20059;-46
2022/11/30 06:01:52;;;;;;;21.48;7.03;;;;;;;6.37;100.00;101244.25;4966264;28;20050;-49
2022/11/30 06:04:20;;;;;;;32.65;8.63;;;;;;;6.43;100.00;101244.97;4964650;28;20054;-44
2022/11/30 06:06:48;;;;;;;20.25;7.63;;;;;;;6.45;100.00;101238.03;4966372;28;20051;-46
2022/11/30 06:09:15;;;;;;;14.85;6.70;;;;;;;6.51;100.00;101252.50;4969385;28;20105;-48
2022/11/30 06:11:42;;;;;;;22.63;8.30;;;;;;;6.53;100.00;101244.75;4968188;28;20078;-45
2022/11/30 06:14:08;;;;;;;21.58;6.63;;;;;;;6.55;100.00;101242.50;4968528;28;20043;-48
2022/11/30 06:16:38;;;;;;;17.92;6.53;;;;;;;6.60;100.00;101240.47;4966083;28;20043;-48
2022/11/30 06:19:05;;;;;;;33.40;7.97;;;;;;;6.62;100.00;101237.38;4968152;28;20397;-46
2022/11/30 06:21:31;;;;;;;20.63;7.80;;;;;;;6.61;100.00;101236.59;4962070;28;20047;-45
2022/11/30 06:23:58;;;;;;;21.65;6.43;;;;;;;6.63;100.00;101245.34;4964815;28;20428;-48
2022/11/30 06:26:25;;;;;;;15.90;6.75;;;;;;;6.64;100.00;101248.94;4966552;28;20084;-45
2022/11/30 06:28:52;;;;;;;19.38;6.60;;;;;;;6.67;100.00;101249.09;4968776;28;22280;-50
2022/11/30 06:31:18;;;;;;;19.17;6.80;;;;;;;6.70;100.00;101256.75;4965710;28;20405;-49
2022/11/30 06:33:45;;;;;;;13.77;5.70;;;;;;;6.77;100.00;101250.03;4967397;28;20082;-48
2022/11/30 06:36:12;;;;;;;14.15;5.80;;;;;;;6.81;100.00;101249.09;4968801;28;20047;-44
2022/11/30 06:38:38;;;;;;;18.40;5.80;;;;;;;6.82;100.00;101253.50;4969377;28;20054;-51
2022/11/30 06:41:07;;;;;;;15.75;4.53;;;;;;;6.81;100.00;101254.59;4960793;28;20094;-48
2022/11/30 06:43:38;;;;;;;13.82;5.43;;;;;;;6.83;100.00;101248.81;4966349;28;20563;-47
2022/11/30 06:46:06;;;;;;;12.50;6.05;;;;;;;6.81;100.00;101262.03;4969308;28;20317;-44
2022/11/30 06:48:33;;;;;;;22.13;5.93;;;;;;;6.78;100.00;101257.97;4965980;28;20077;-45
2022/11/30 06:51:03;;;;;;;12.88;5.22;;;;;;;6.74;100.00;101263.28;4961167;28;20039;-45
2022/11/30 06:53:30;;;;;;;13.93;4.93;;;;;;;6.74;100.00;101263.28;4969148;28;20051;-45
2022/11/30 06:55:57;;;;;;;12.45;5.28;;;;;;;6.78;100.00;101262.69;4968514;28;20126;-44
2022/11/30 06:58:23;;;;;;;10.65;4.60;;;;;;;6.77;100.00;101261.03;4968459;28;20699;-45
2022/11/30 07:00:50;;;;;;;19.65;5.57;;;;;;;6.79;100.00;101267.84;4967910;28;20061;-45
2022/11/30 07:03:17;;;;;;;15.45;6.28;;;;;;;6.80;100.00;101271.44;4968226;28;20059;-47
2022/11/30 07:05:45;;;;;;;23.83;9.00;;;;;;;6.80;100.00;101266.75;4969146;28;20045;-45
2022/11/30 07:08:16;;;;;;;19.60;8.50;;;;;;;6.79;100.00;101269.78;4957513;28;20515;-45
2022/11/30 07:10:44;;;;;;;17.77;7.93;;;;;;;6.79;100.00;101275.28;4969047;28;20516;-46
2022/11/30 07:13:13;;;;;;;21.30;8.65;;;;;;;6.80;100.00;101274.19;4968906;28;20417;-45
2022/11/30 07:15:41;;;;;;;20.48;8.55;;;;;;;6.79;100.00;101283.56;4967623;28;20038;-46
2022/11/30 07:18:08;;;;;;;18.75;8.25;;;;;;;6.82;100.00;101285.69;4968184;28;20042;-45
2022/11/30 07:20:35;;;;;;;34.20;11.77;;;;;;;6.82;100.00;101286.50;4967625;28;20460;-44
2022/11/30 07:26:05;;;;;;;22.65;8.82;;;;;;;6.78;100.00;101290.97;4955275;28;20051;-47
2022/11/30 07:28:40;;;;;;;25.05;8.88;;;;;;;6.75;100.00;101292.41;4968491;28;20054;-44
2022/11/30 07:31:25;;;;;;;24.98;9.77;;;;;;;6.74;100.00;101299.06;4968886;28;20136;-45
2022/11/30 07:33:53;;;;;;;23.52;7.75;;;;;;;6.74;100.00;101301.00;4968523;28;20051;-44
2022/11/30 07:36:21;;;;;;;21.27;9.10;;;;;;;6.77;100.00;101302.31;4963647;28;20122;-44
2022/11/30 07:38:48;;;;;;;18.70;9.90;;;;;;;6.79;100.00;101308.31;4963614;28;20051;-45
2022/11/30 07:41:15;;;;;;;31.42;9.68;;;;;;;6.78;100.00;101306.72;4963831;28;20077;-44
2022/11/30 07:43:42;;;;;;;24.83;10.40;;;;;;;6.78;100.00;101303.94;4949791;28;20127;-47
2022/11/30 07:46:11;;;;;;;23.83;9.48;;;;;;;6.78;100.00;101313.00;4967720;28;20042;-44
2022/11/30 07:48:38;;;;;;;18.95;7.82;;;;;;;6.80;100.00;101312.72;4967934;28;20142;-46
2022/11/30 07:51:10;;;;;;;17.33;8.23;;;;;;;6.80;100.00;101321.78;4967719;28;20603;-49
2022/11/30 07:53:37;;;;;;;31.55;9.38;;;;;;;6.79;100.00;101330.34;4959919;28;20051;-46
2022/11/30 07:56:06;;;;;;;23.92;9.88;;;;;;;6.80;100.00;101334.72;4950962;28;20098;-45
2022/11/30 07:58:33;;;;;;;28.65;13.13;;;;;;;6.80;100.00;101337.47;4966023;28;20057;-48
2022/11/30 08:01:06;;;;;;;25.85;8.68;;;;;;;6.78;100.00;101343.28;4966112;28;20109;-48
2022/11/30 08:03:33;;;;;;;25.38;7.80;;;;;;;6.78;100.00;101342.47;4964776;28;20085;-44
2022/11/30 08:06:08;;;;;;;24.02;8.93;;;;;;;6.77;100.00;101349.09;4958921;28;20130;-52
2022/11/30 08:08:37;;;;;;;20.73;7.40;;;;;;;6.75;100.00;101347.44;4965648;28;20054;-45
2022/11/30 08:11:06;;;;;;;17.88;6.57;;;;;;;6.74;100.00;101350.53;4960514;28;20051;-46
2022/11/30 08:13:33;;;;;;;19.00;6.72;;;;;;;6.73;100.00;101366.22;4962730;28;20039;-48
2022/11/30 08:16:06;;;;;;;17.13;7.03;;;;;;;6.72;100.00;101350.03;4962872;28;20591;-47
2022/11/30 08:18:33;;;;;;;18.27;7.20;;;;;;;6.69;100.00;101359.69;4962164;28;20035;-43
2022/11/30 08:21:02;;;;;;;19.25;8.00;;;;;;;6.67;100.00;101372.13;4966409;28;20051;-45
2022/11/30 08:23:35;;;;;;;17.90;7.13;;;;;;;6.66;100.00;101371.31;4969930;28;20038;-45
2022/11/30 08:26:05;;;;;;;14.10;7.60;;;;;;;6.67;100.00;101394.13;4968647;28;20054;-43
2022/11/30 08:28:36;;;;;;;16.40;7.03;;;;;;;6.66;100.00;101382.31;4969721;28;20731;-44
2022/11/30 08:31:06;;;;;;;24.40;6.55;;;;;;;6.65;100.00;101391.69;4966824;28;20097;-48
2022/11/30 08:33:34;;;;;;;18.33;6.65;;;;;;;6.66;100.00;101403.50;4965150;28;20783;-46
2022/11/30 08:36:08;;;;;;;16.27;7.47;;;;;;;6.66;100.00;101398.81;4964682;28;20521;-45
2022/11/30 08:38:35;;;;;;;24.48;8.60;;;;;;;6.66;100.00;101401.56;4969478;28;20066;-45
2022/11/30 08:41:02;;;;;;;21.80;6.43;;;;;;;6.70;100.00;101410.84;4967196;28;20066;-50
2022/11/30 08:43:29;;;;;;;19.45;7.28;;;;;;;6.75;100.00;101408.00;4966114;28;20038;-47
2022/11/30 08:45:56;;;;;;;17.15;7.30;;;;;;;6.81;100.00;101410.66;4965986;28;20105;-48
2022/11/30 08:48:23;;;;;;;18.10;7.80;;;;;;;6.85;100.00;101418.00;4965074;28;20081;-45
2022/11/30 08:50:50;;;;;;;21.08;6.20;;;;;;;6.93;100.00;101420.06;4966774;28;20670;-54
2022/11/30 08:53:16;;;;;;;14.75;6.50;;;;;;;6.99;100.00;101427.09;4963845;28;20334;-46
2022/11/30 08:55:53;;;;;;;17.63;5.82;;;;;;;7.05;100.00;101430.56;4968649;28;20556;-47
2022/11/30 08:58:19;;;;;;;19.30;7.00;;;;;;;7.10;100.00;101428.53;4969857;28;20050;-48
2022/11/30 09:00:46;;;;;;;19.02;7.07;;;;;;;7.15;100.00;101430.34;4961872;28;20047;-51
2022/11/30 09:03:13;;;;;;;23.83;6.88;;;;;;;7.19;100.00;101431.38;4965310;28;20054;-51
2022/11/30 09:05:40;;;;;;;16.08;6.35;;;;;;;7.27;100.00;101431.50;4966667;28;20405;-48
2022/11/30 09:08:06;;;;;;;17.98;7.07;;;;;;;7.31;100.00;101443.50;4968752;28;20142;-46
2022/11/30 09:10:33;;;;;;;21.80;7.10;;;;;;;7.34;100.00;101442.91;4966097;28;20808;-46
2022/11/30 09:13:00;;;;;;;20.08;6.65;;;;;;;7.41;100.00;101448.03;4968549;28;20047;-43
2022/11/30 09:15:26;;;;;;;18.05;7.07;;;;;;;7.45;100.00;101448.19;4967577;28;20504;-43
2022/11/30 09:17:53;;;;;;;14.45;6.00;;;;;;;7.51;100.00;101458.81;4969048;28;20400;-45
2022/11/30 09:20:20;;;;;;;18.65;6.20;;;;;;;7.54;100.00;101452.69;4968358;28;20102;-50
2022/11/30 09:22:47;;;;;;;14.52;6.30;;;;;;;7.59;100.00;101460.03;4962169;28;20046;-43
2022/11/30 09:25:14;;;;;;;18.13;6.50;;;;;;;7.63;100.00;101461.84;4971255;28;20473;-45
2022/11/30 09:27:42;;;;;;;13.48;5.65;;;;;;;7.68;100.00;101452.66;4971515;28;20186;-43
2022/11/30 09:30:09;;;;;;;22.15;7.35;;;;;;;7.70;100.00;101455.94;4962827;28;20501;-44
2022/11/30 09:32:36;;;;;;;24.63;6.85;;;;;;;7.76;100.00;101455.50;4971551;28;20055;-44
2022/11/30 09:35:02;;;;;;;18.00;5.43;;;;;;;7.79;100.00;101452.13;4971254;28;20397;-44
2022/11/30 09:37:34;;;;;;;20.60;5.10;;;;;;;7.83;100.00;101468.88;4955482;28;20086;-46
2022/11/30 09:40:00;;;;;;;12.43;5.80;;;;;;;7.86;100.00;101460.78;4971013;28;20054;-47
2022/11/30 09:42:47;;;;;;;17.80;4.97;;;;;;;7.90;100.00;101472.03;4970881;28;20043;-46
2022/11/30 09:45:29;;;;;;;11.52;5.00;;;;;;;7.93;100.00;101480.50;4968031;28;20496;-47
2022/11/30 09:48:26;;;;;;;15.45;5.70;;;;;;;7.96;100.00;101479.06;4962135;28;20051;-48
2022/11/30 09:50:53;;;;;;;18.25;5.75;;;;;;;7.97;100.00;101477.94;4970667;28;20043;-44
2022/11/30 09:53:39;;;;;;;13.43;4.78;;;;;;;7.98;100.00;101480.38;4968709;28;20035;-45
2022/11/30 09:56:17;;;;;;;10.57;4.30;;;;;;;8.03;100.00;101496.00;4967946;28;20524;-46
2022/11/30 09:58:49;;;;;;;14.35;5.22;;;;;;;8.07;100.00;101498.97;4967173;28;20404;-46
2022/11/30 10:01:18;;;;;;;;;;;;;;;8.09;100.00;101491.19;4968465;28;20509;-49
2022/11/30 10:03:45;;;;;;;9.20;3.72;;;;;;;8.10;100.00;101503.84;4970550;28;19922;-44
2022/11/30 10:06:25;;;;;;;12.73;4.82;;;;;;;8.11;100.00;101511.00;4954899;28;20521;-48
2022/11/30 10:09:02;;;;;;;10.80;4.30;;;;;;;8.13;100.00;101515.06;4965542;28;20497;-44
2022/11/30 10:11:41;;;;;;;9.95;4.72;;;;;;;8.15;100.00;101509.25;4971826;28;20796;-44
2022/11/30 10:14:36;;;;;;;12.45;5.32;;;;;;;8.18;100.00;101519.69;4970404;28;20043;-46
2022/11/30 10:17:21;;;;;;;10.32;3.75;;;;;;;8.19;100.00;101513.84;4962230;28;20425;-43
2022/11/30 10:19:53;;;;;;;11.48;4.30;;;;;;;8.21;100.00;101516.28;4971733;28;20057;-46
2022/11/30 10:22:45;;;;;;;13.15;4.43;;;;;;;8.25;100.00;101525.56;4970140;28;20580;-45
2022/11/30 10:25:36;;;;;;;7.20;4.05;;;;;;;8.26;100.00;101513.41;4967075;28;20051;-45
2022/11/30 10:28:22;;;;;;;7.40;3.58;;;;;;;8.27;100.00;101520.59;4950410;28;20493;-43
2022/11/30 10:31:12;;;;;;;8.45;3.80;;;;;;;8.30;100.00;101519.97;4957647;28;20865;-45
2022/11/30 10:33:53;;;;;;;11.30;3.10;;;;;;;8.32;100.00;101523.22;4964377;28;20645;-44
2022/11/30 10:36:32;;;;;;;14.88;4.30;;;;;;;8.34;100.00;101526.50;4967504;28;20133;-43
2022/11/30 10:39:02;;;;;;;9.25;4.15;;;;;;;8.36;100.00;101525.06;4969935;28;20042;-47
2022/11/30 10:41:45;;;;;;;5.97;3.08;;;;;;;8.40;100.00;101525.25;4970748;28;20524;-45
2022/11/30 10:44:39;;;;;;;8.38;3.97;;;;;;;8.41;100.00;101522.19;4952449;28;20088;-44
2022/11/30 10:47:23;;;;;;;11.20;3.50;;;;;;;8.43;100.00;101525.44;4963052;28;20070;-46
2022/11/30 10:49:51;;;;;;;8.15;4.18;;;;;;;8.45;100.00;101531.47;4959544;28;20043;-44
2022/11/30 10:52:25;;;;;;;6.63;2.85;;;;;;;8.47;100.00;101534.72;4968549;28;20137;-51
2022/11/30 10:54:55;;;;;;;10.85;3.72;;;;;;;8.50;100.00;101525.00;4967686;28;20407;-43
2022/11/30 10:57:31;;;;;;;8.30;3.42;;;;;;;8.53;100.00;101527.13;4962842;28;20039;-51
2022/11/30 11:00:01;;;;;;;9.10;3.92;;;;;;;8.55;100.00;101525.69;4967365;28;20046;-46
2022/11/30 11:02:41;;;;;;;14.07;3.03;;;;;;;8.58;100.00;101521.50;4965610;28;20588;-50
2022/11/30 11:05:29;;;;;;;13.15;3.50;;;;;;;8.61;100.00;101531.09;4971267;28;20117;-44
2022/11/30 11:08:00;;;;;;;17.77;4.18;;;;;;;8.63;100.00;101528.84;4966175;28;20050;-44
2022/11/30 11:10:43;;;;;;;10.60;3.40;;;;;;;8.66;100.00;101526.25;4971074;28;20047;-50
2022/11/30 11:13:37;;;;;;;6.18;2.70;;;;;;;8.70;100.00;101521.75;4968597;28;20043;-44
2022/11/30 11:16:07;;;;;;;9.23;3.50;;;;;;;8.74;100.00;101525.50;4968472;28;20391;-46
2022/11/30 11:18:36;;;;;;;6.05;2.83;;;;;;;8.75;100.00;101527.16;4968608;28;20070;-45
2022/11/30 11:21:08;;;;;;;11.10;2.92;;;;;;;8.78;100.00;101534.81;4967061;28;20050;-44
2022/11/30 11:23:38;;;;;;;8.45;2.70;;;;;;;8.79;100.00;101522.63;4961016;28;20408;-49
2022/11/30 11:26:07;;;;;;;9.60;2.78;;;;;;;8.80;100.00;101520.69;4962892;28;20366;-46
2022/11/30 11:28:36;;;;;;;6.60;3.00;;;;;;;8.80;100.00;101529.78;4959283;28;20050;-45
2022/11/30 11:31:17;;;;;;;5.63;2.45;;;;;;;8.84;100.00;101536.28;4964396;28;20047;-45
2022/11/30 11:33:53;;;;;;;9.30;3.40;;;;;;;8.85;100.00;101539.88;4960230;28;20513;-47
2022/11/30 11:36:30;;;;;;;5.97;3.30;;;;;;;8.87;100.00;101540.41;4971020;28;20051;-49
2022/11/30 11:38:59;;;;;;;5.55;2.85;;;;;;;8.88;100.00;101539.25;4968644;28;20050;-51